Time;durP1;ratioP1;P1;durP2;ratioP2;P2;SDS_P1;SDS_P2;PMS_P1;PMS_P2;Temp;Humidity;BMP_temperature;BMP_pressure;BME280_temperature;BME280_humidity;BME280_pressure;Samples;Min_cycle;Max_cycle;Signal;HPM_P1;HPM_P2
2022/05/22 00:01:26;;;;;;;9.93;2.53;;;13.70;99.90;;;;;;4944572;28;20020;-88
2022/05/22 00:03:53;;;;;;;9.05;1.88;;;13.60;99.90;;;;;;4955427;29;20023;-87
2022/05/22 00:06:18;;;;;;;10.27;2.53;;;13.70;99.90;;;;;;4953977;28;20027;-87
2022/05/22 00:09:03;;;;;;;10.07;2.70;;;13.60;99.90;;;;;;4955095;29;20077;-88
2022/05/22 00:11:29;;;;;;;11.83;2.37;;;13.60;99.90;;;;;;4937859;29;20039;-88
2022/05/22 00:14:32;;;;;;;9.30;2.22;;;13.50;99.90;;;;;;4950761;29;20117;-87
2022/05/22 00:16:59;;;;;;;10.30;2.17;;;13.50;99.90;;;;;;4935926;29;20046;-88
2022/05/22 00:19:27;;;;;;;5.30;2.10;;;13.40;99.90;;;;;;4935387;29;20070;-87
2022/05/22 00:22:22;;;;;;;6.72;1.95;;;13.30;99.90;;;;;;4937703;29;20035;-87
2022/05/22 00:24:48;;;;;;;10.75;2.53;;;13.20;99.90;;;;;;4935893;29;20360;-87
2022/05/22 00:27:15;;;;;;;13.63;2.63;;;13.20;99.90;;;;;;4935779;29;20107;-88
2022/05/22 00:29:43;;;;;;;11.13;2.15;;;13.20;99.90;;;;;;4936403;29;20024;-88
2022/05/22 00:32:09;;;;;;;9.73;2.55;;;13.20;99.90;;;;;;4935170;29;20030;-87
2022/05/22 00:34:36;;;;;;;7.53;2.55;;;13.10;99.90;;;;;;4935855;29;20032;-87
2022/05/22 00:37:12;;;;;;;8.02;1.95;;;13.10;99.90;;;;;;4935541;29;20024;-87
2022/05/22 00:39:38;;;;;;;6.00;1.75;;;13.10;99.90;;;;;;4935954;29;20024;-88
2022/05/22 00:42:18;;;;;;;8.48;1.85;;;13.00;99.90;;;;;;4935343;29;20365;-88
2022/05/22 00:44:44;;;;;;;17.85;1.90;;;13.00;99.90;;;;;;4919694;29;20088;-88
2022/05/22 00:47:09;;;;;;;11.73;1.50;;;12.90;99.90;;;;;;4933961;29;20114;-88
2022/05/22 00:49:46;;;;;;;7.88;2.25;;;12.80;99.90;;;;;;4920652;29;20112;-87
2022/05/22 00:52:27;;;;;;;8.18;2.13;;;12.80;99.90;;;;;;4927510;29;20424;-87
2022/05/22 00:54:58;;;;;;;11.48;3.55;;;12.70;99.90;;;;;;4916816;29;20117;-88
2022/05/22 00:57:32;;;;;;;5.63;1.52;;;12.70;99.90;;;;;;4935173;29;20498;-88
2022/05/22 01:00:29;;;;;;;4.63;1.80;;;12.60;99.90;;;;;;4935758;29;20028;-88
2022/05/22 01:05:41;;;;;;;8.15;1.90;;;12.50;99.90;;;;;;4935837;29;20357;-88
2022/05/22 01:08:12;;;;;;;10.95;1.67;;;12.40;99.90;;;;;;4933655;29;20462;-88
2022/05/22 01:10:46;;;;;;;4.95;1.60;;;12.40;99.90;;;;;;4918679;29;20042;-88
2022/05/22 01:13:13;;;;;;;6.93;1.40;;;12.30;99.90;;;;;;4917397;29;20098;-88
2022/05/22 01:15:39;;;;;;;6.40;1.75;;;12.30;99.90;;;;;;4937225;29;20058;-88
2022/05/22 01:18:05;;;;;;;7.78;2.10;;;12.30;99.90;;;;;;4950068;29;20032;-87
2022/05/22 01:20:30;;;;;;;9.15;2.17;;;12.20;99.90;;;;;;4946332;29;20023;-87
2022/05/22 01:22:56;;;;;;;13.02;3.03;;;12.20;99.90;;;;;;4937359;29;20086;-87
2022/05/22 01:25:27;;;;;;;7.75;1.73;;;12.10;99.90;;;;;;4940352;29;20035;-87
2022/05/22 01:27:53;;;;;;;11.18;1.95;;;12.10;99.90;;;;;;4936656;29;20458;-87
2022/05/22 01:30:26;;;;;;;13.30;2.28;;;12.00;99.90;;;;;;4954194;29;20039;-86
2022/05/22 01:32:58;;;;;;;7.53;2.03;;;12.00;99.90;;;;;;4948832;29;20309;-87
2022/05/22 01:35:27;;;;;;;8.07;2.10;;;12.00;99.90;;;;;;4937336;29;20096;-87
2022/05/22 01:37:53;;;;;;;4.50;1.45;;;11.90;99.90;;;;;;4954071;29;20078;-87
2022/05/22 01:40:42;;;;;;;5.43;1.70;;;11.90;99.90;;;;;;4957031;28;20019;-87
2022/05/22 01:43:08;;;;;;;9.38;2.67;;;11.90;99.90;;;;;;4956801;28;20110;-86
2022/05/22 01:45:34;;;;;;;8.40;2.08;;;11.90;99.90;;;;;;4953953;29;20519;-87
2022/05/22 01:48:15;;;;;;;8.95;2.40;;;11.90;99.90;;;;;;4937052;29;20023;-87
2022/05/22 01:50:43;;;;;;;6.13;1.70;;;11.90;99.90;;;;;;4936653;29;20114;-87
2022/05/22 01:53:45;;;;;;;3.78;1.77;;;11.90;99.90;;;;;;4956628;28;20092;-87
2022/05/22 01:56:11;;;;;;;5.97;1.80;;;11.90;99.90;;;;;;4957361;28;20494;-87
2022/05/22 01:58:37;;;;;;;3.83;1.55;;;11.90;99.90;;;;;;4939968;29;20019;-87
2022/05/22 02:01:02;;;;;;;9.25;2.60;;;11.90;99.90;;;;;;4940179;29;20102;-87
2022/05/22 02:03:28;;;;;;;7.82;2.45;;;11.80;99.90;;;;;;4957787;28;20034;-87
2022/05/22 02:05:54;;;;;;;11.15;2.30;;;11.80;99.90;;;;;;4957815;29;20031;-87
2022/05/22 02:08:39;;;;;;;14.60;2.85;;;11.80;99.90;;;;;;4965873;28;20090;-87
2022/05/22 02:11:06;;;;;;;11.82;2.53;;;11.80;99.90;;;;;;4957584;29;20058;-87
2022/05/22 02:13:34;;;;;;;6.78;2.10;;;11.80;99.90;;;;;;4926595;29;20035;-87
2022/05/22 02:16:00;;;;;;;6.55;2.10;;;11.80;99.90;;;;;;4938623;29;20053;-86
2022/05/22 02:18:26;;;;;;;10.98;2.03;;;11.80;99.90;;;;;;4957179;29;20035;-87
2022/05/22 02:20:51;;;;;;;8.70;2.25;;;11.80;99.90;;;;;;4939884;29;20042;-87
2022/05/22 02:23:32;;;;;;;8.60;2.55;;;11.80;99.90;;;;;;4956840;28;20023;-87
2022/05/22 02:25:58;;;;;;;17.17;2.85;;;11.80;99.90;;;;;;4940209;29;20023;-87
2022/05/22 02:28:25;;;;;;;7.68;2.28;;;11.70;99.90;;;;;;4953085;29;20030;-87
2022/05/22 02:31:00;;;;;;;9.23;2.03;;;11.70;99.90;;;;;;4957114;29;20400;-87
2022/05/22 02:33:27;;;;;;;12.18;2.47;;;11.70;99.90;;;;;;4936842;29;20036;-87
2022/05/22 02:35:52;;;;;;;6.60;2.20;;;11.70;99.90;;;;;;4957202;29;20023;-87
2022/05/22 02:38:24;;;;;;;5.70;1.90;;;11.70;99.90;;;;;;4940100;29;20110;-87
2022/05/22 02:40:50;;;;;;;8.65;2.00;;;11.70;99.90;;;;;;4954587;29;20015;-87
2022/05/22 02:43:16;;;;;;;7.10;2.35;;;11.70;99.90;;;;;;4956985;28;20023;-87
2022/05/22 02:45:53;;;;;;;5.30;2.05;;;11.60;99.90;;;;;;4956865;29;20038;-87
2022/05/22 02:48:18;;;;;;;6.78;2.00;;;11.70;99.90;;;;;;4956705;29;20023;-87
2022/05/22 02:50:45;;;;;;;5.82;2.03;;;11.60;99.90;;;;;;4940045;29;20034;-87
2022/05/22 02:56:44;;;;;;;4.60;1.88;;;11.60;99.90;;;;;;4957020;29;20031;-87
2022/05/22 02:59:10;;;;;;;5.97;2.15;;;11.60;99.90;;;;;;4956389;28;20022;-87
2022/05/22 03:01:36;;;;;;;5.43;1.52;;;11.60;99.90;;;;;;4958216;28;20027;-87
2022/05/22 03:04:03;;;;;;;9.38;2.20;;;11.50;99.90;;;;;;4962637;28;20039;-87
2022/05/22 03:09:15;;;;;;;5.55;1.90;;;11.60;99.90;;;;;;4962224;28;20029;-86
2022/05/22 03:15:12;;;;;;;8.70;2.92;;;11.50;99.90;;;;;;4953643;29;20053;-87
2022/05/22 03:17:38;;;;;;;8.13;2.15;;;11.40;99.90;;;;;;4934636;29;20040;-87
2022/05/22 03:20:10;;;;;;;4.82;1.55;;;11.40;99.90;;;;;;4931659;29;20476;-86
2022/05/22 03:22:36;;;;;;;4.43;1.85;;;11.40;99.90;;;;;;4937271;29;20023;-86
2022/05/22 03:25:06;;;;;;;4.35;1.70;;;11.40;99.90;;;;;;4919245;29;20030;-87
2022/05/22 03:27:32;;;;;;;7.63;2.10;;;11.40;99.90;;;;;;4936941;29;20028;-86
2022/05/22 03:29:57;;;;;;;8.18;1.90;;;11.40;99.90;;;;;;4919298;29;20387;-86
2022/05/22 03:33:15;;;;;;;8.48;1.80;;;11.40;99.90;;;;;;4922678;29;20374;-85
2022/05/22 03:35:41;;;;;;;5.32;2.30;;;11.40;99.90;;;;;;4937176;29;20441;-86
2022/05/22 03:38:07;;;;;;;7.43;2.22;;;11.30;99.90;;;;;;4936661;29;20086;-86
2022/05/22 03:40:40;;;;;;;9.35;2.50;;;11.30;99.90;;;;;;4939706;29;20539;-86
2022/05/22 03:43:06;;;;;;;10.27;2.70;;;11.30;99.90;;;;;;4926862;29;20463;-86
2022/05/22 03:45:35;;;;;;;12.15;2.67;;;11.30;99.90;;;;;;4937678;29;20059;-86
2022/05/22 03:48:01;;;;;;;10.15;1.95;;;11.30;99.90;;;;;;4900932;29;20500;-87
2022/05/22 03:50:26;;;;;;;9.48;1.92;;;11.20;99.90;;;;;;4923469;29;20024;-86
2022/05/22 03:53:07;;;;;;;5.18;1.70;;;11.30;99.90;;;;;;4934686;29;20480;-86
2022/05/22 03:55:32;;;;;;;8.45;2.08;;;11.20;99.90;;;;;;4936893;29;20036;-86
2022/05/22 03:57:58;;;;;;;5.57;1.85;;;11.20;99.90;;;;;;4934984;29;20096;-86
2022/05/22 04:00:45;;;;;;;4.20;2.17;;;11.30;99.90;;;;;;4936093;29;20016;-86
2022/05/22 04:03:10;;;;;;;7.53;1.95;;;11.20;99.90;;;;;;4909885;29;21072;-86
2022/05/22 04:05:36;;;;;;;13.68;1.95;;;11.20;99.90;;;;;;4936479;29;20103;-86
2022/05/22 04:08:14;;;;;;;7.28;2.17;;;11.20;99.90;;;;;;4934058;29;20083;-86
2022/05/22 04:10:39;;;;;;;7.30;2.20;;;11.20;99.90;;;;;;4936266;29;20409;-86
2022/05/22 04:13:05;;;;;;;5.30;1.60;;;11.20;99.90;;;;;;4936093;29;20026;-86
2022/05/22 04:15:47;;;;;;;4.30;1.80;;;11.20;99.90;;;;;;4926441;29;20476;-86
2022/05/22 04:18:13;;;;;;;4.63;1.35;;;11.30;99.90;;;;;;4910457;29;20039;-86
2022/05/22 04:20:39;;;;;;;4.88;2.10;;;11.30;99.90;;;;;;4927936;29;20024;-86
2022/05/22 04:25:59;;;;;;;10.18;2.47;;;11.30;99.90;;;;;;4942137;29;20031;-86
2022/05/22 04:28:26;;;;;;;8.90;2.05;;;11.30;99.90;;;;;;4935399;29;20090;-86
2022/05/22 04:31:30;;;;;;;3.63;1.85;;;11.40;99.90;;;;;;4934443;29;20495;-86
2022/05/22 04:33:56;;;;;;;7.13;2.28;;;11.40;99.90;;;;;;4935755;29;20368;-86
2022/05/22 04:36:21;;;;;;;6.00;1.60;;;11.50;99.90;;;;;;4936011;29;20031;-86
2022/05/22 04:39:18;;;;;;;6.70;2.03;;;11.50;99.90;;;;;;4935569;29;20383;-86
2022/05/22 04:41:43;;;;;;;10.55;2.47;;;11.60;99.90;;;;;;4936531;29;20087;-86
2022/05/22 04:44:09;;;;;;;5.22;1.85;;;11.60;99.90;;;;;;4939722;29;20433;-86
2022/05/22 04:46:50;;;;;;;5.63;1.98;;;11.70;99.90;;;;;;4938992;29;20167;-86
2022/05/22 04:49:16;;;;;;;7.25;1.90;;;11.70;99.90;;;;;;4935406;29;20126;-86
2022/05/22 04:51:41;;;;;;;8.20;2.55;;;11.70;99.90;;;;;;4935857;29;20106;-86
2022/05/22 04:54:15;;;;;;;3.90;1.70;;;11.70;99.90;;;;;;4936325;29;20031;-86
2022/05/22 04:56:40;;;;;;;6.43;2.00;;;11.80;99.90;;;;;;4921471;29;20024;-86
2022/05/22 04:59:24;;;;;;;7.50;2.00;;;11.80;99.90;;;;;;4935214;29;20047;-86
2022/05/22 05:01:50;;;;;;;7.22;2.25;;;11.80;99.90;;;;;;4934963;29;20036;-87
2022/05/22 05:04:15;;;;;;;6.07;1.70;;;11.80;99.90;;;;;;4917585;29;20041;-86
2022/05/22 05:06:43;;;;;;;13.35;2.40;;;11.80;99.90;;;;;;4942925;29;20031;-86
2022/05/22 05:09:09;;;;;;;11.43;2.45;;;11.90;99.90;;;;;;4924952;29;20114;-86
2022/05/22 05:11:34;;;;;;;7.88;2.58;;;11.90;99.90;;;;;;4928054;29;20114;-86
2022/05/22 05:14:01;;;;;;;8.80;2.58;;;11.90;99.90;;;;;;4934869;29;20028;-86
2022/05/22 05:16:41;;;;;;;8.35;2.03;;;12.00;99.90;;;;;;4938236;28;20369;-86
2022/05/22 05:19:07;;;;;;;8.80;2.83;;;12.10;99.90;;;;;;4928450;29;20450;-86
2022/05/22 05:21:32;;;;;;;17.55;4.25;;;12.10;99.90;;;;;;4953301;29;20111;-86
2022/05/22 05:24:02;;;;;;;11.57;2.88;;;12.20;99.90;;;;;;4952266;29;20419;-86
2022/05/22 05:26:28;;;;;;;6.97;2.65;;;12.30;99.90;;;;;;4952441;29;20031;-86
2022/05/22 05:28:53;;;;;;;5.45;1.60;;;12.40;99.90;;;;;;4953526;29;20510;-86
2022/05/22 05:31:41;;;;;;;6.75;2.38;;;12.40;99.90;;;;;;4953575;29;20115;-86
2022/05/22 05:34:14;;;;;;;7.53;2.20;;;12.50;99.90;;;;;;4948884;28;20035;-86
2022/05/22 05:36:40;;;;;;;9.18;2.10;;;12.60;99.90;;;;;;4953421;29;20440;-86
2022/05/22 05:39:08;;;;;;;9.95;2.60;;;12.70;99.90;;;;;;4953985;29;20098;-86
2022/05/22 05:41:37;;;;;;;6.68;2.22;;;12.70;99.90;;;;;;4953963;29;20514;-86
2022/05/22 05:44:07;;;;;;;9.57;2.63;;;12.80;99.90;;;;;;4948566;28;20472;-86
2022/05/22 05:46:39;;;;;;;15.10;3.92;;;12.90;99.90;;;;;;4953540;29;20387;-87
2022/05/22 05:49:06;;;;;;;11.43;2.90;;;12.90;99.90;;;;;;4953826;28;20083;-87
2022/05/22 05:51:32;;;;;;;8.02;2.90;;;12.90;99.90;;;;;;4970366;28;20034;-87
2022/05/22 05:53:58;;;;;;;16.30;3.25;;;13.00;99.90;;;;;;4953752;28;20055;-87
2022/05/22 05:56:39;;;;;;;13.57;2.80;;;13.00;99.90;;;;;;4954208;29;20066;-87
2022/05/22 05:59:05;;;;;;;10.88;2.55;;;13.00;99.90;;;;;;4918255;29;20035;-88
2022/05/22 06:01:30;;;;;;;14.95;3.17;;;13.10;99.90;;;;;;4922806;29;20038;-87
2022/05/22 06:04:02;;;;;;;16.13;4.07;;;13.10;99.90;;;;;;4954231;29;20027;-87
2022/05/22 06:06:28;;;;;;;9.77;3.13;;;13.10;99.90;;;;;;4947624;29;20027;-87
2022/05/22 06:08:55;;;;;;;20.55;3.88;;;13.10;99.90;;;;;;4952572;28;20087;-87
2022/05/22 06:11:43;;;;;;;12.40;3.10;;;13.20;99.90;;;;;;4948235;29;20387;-87
2022/05/22 06:14:09;;;;;;;17.17;3.40;;;13.10;99.90;;;;;;4949819;28;20379;-87
2022/05/22 06:16:35;;;;;;;11.65;3.58;;;13.10;99.90;;;;;;4939804;29;20040;-87
2022/05/22 06:19:04;;;;;;;19.08;3.88;;;13.10;99.90;;;;;;4953925;29;20027;-87
2022/05/22 06:21:30;;;;;;;22.15;3.90;;;13.10;99.90;;;;;;4953104;29;20510;-87
2022/05/22 06:23:55;;;;;;;13.77;3.95;;;13.10;99.90;;;;;;4953761;28;20023;-87
2022/05/22 06:26:29;;;;;;;21.15;4.90;;;13.20;99.90;;;;;;4935788;29;20028;-87
2022/05/22 06:28:55;;;;;;;16.20;3.65;;;13.20;99.90;;;;;;4953030;29;20027;-87
2022/05/22 06:31:20;;;;;;;13.18;2.95;;;13.20;99.90;;;;;;4952709;29;20042;-87
2022/05/22 06:33:47;;;;;;;7.13;3.13;;;13.20;99.90;;;;;;4953436;29;20391;-87
2022/05/22 06:36:15;;;;;;;16.52;4.63;;;13.20;99.90;;;;;;4952004;29;20023;-88
2022/05/22 06:41:27;;;;;;;14.85;3.78;;;13.30;99.90;;;;;;4951640;29;20047;-87
2022/05/22 06:43:53;;;;;;;11.52;2.95;;;13.30;99.90;;;;;;4958360;28;20475;-87
2022/05/22 06:46:26;;;;;;;20.98;3.90;;;13.40;99.90;;;;;;4957130;28;20120;-88
2022/05/22 06:48:52;;;;;;;20.17;4.65;;;13.50;99.90;;;;;;4938589;29;20488;-87
2022/05/22 06:51:17;;;;;;;13.32;3.25;;;13.50;99.90;;;;;;4956399;29;20027;-87
2022/05/22 06:53:43;;;;;;;12.57;3.33;;;13.50;99.90;;;;;;4954735;28;20403;-87
2022/05/22 06:56:08;;;;;;;16.15;3.70;;;13.60;99.90;;;;;;4939238;29;20020;-87
2022/05/22 06:58:36;;;;;;;15.40;4.05;;;13.70;99.90;;;;;;4944636;29;20035;-87
2022/05/22 07:01:02;;;;;;;16.17;4.20;;;13.70;99.90;;;;;;4953424;28;20050;-88
2022/05/22 07:03:27;;;;;;;10.15;2.63;;;13.80;99.90;;;;;;4933964;29;20383;-88
2022/05/22 07:05:53;;;;;;;29.20;5.20;;;13.80;99.90;;;;;;4956504;28;20034;-87
2022/05/22 07:08:19;;;;;;;11.07;3.70;;;13.80;99.90;;;;;;4953420;28;20035;-87
2022/05/22 07:13:28;;;;;;;16.58;4.20;;;14.00;99.90;;;;;;4943535;28;20142;-87
2022/05/22 07:16:03;;;;;;;11.25;3.10;;;14.00;99.90;;;;;;4951584;28;20114;-86
2022/05/22 07:18:29;;;;;;;17.38;3.80;;;14.00;99.90;;;;;;4934440;29;20480;-87
2022/05/22 07:20:55;;;;;;;17.08;3.78;;;14.00;99.90;;;;;;4919400;29;20076;-87
2022/05/22 07:23:20;;;;;;;11.45;3.50;;;14.10;99.90;;;;;;4936579;29;20040;-87
2022/05/22 07:25:46;;;;;;;20.80;3.90;;;14.10;99.90;;;;;;4933947;29;20024;-87
2022/05/22 07:28:12;;;;;;;14.43;3.33;;;14.20;99.90;;;;;;4934167;29;20024;-88
2022/05/22 07:30:38;;;;;;;12.23;3.53;;;14.30;99.90;;;;;;4913511;29;20021;-87
2022/05/22 07:33:03;;;;;;;10.98;3.08;;;14.40;99.90;;;;;;4936267;29;20384;-87
2022/05/22 07:35:29;;;;;;;9.23;2.83;;;14.40;99.90;;;;;;4915946;29;20468;-87
2022/05/22 07:37:55;;;;;;;9.73;3.08;;;14.50;99.90;;;;;;4931182;29;20028;-86
2022/05/22 07:40:20;;;;;;;12.75;3.70;;;14.50;99.90;;;;;;4935458;29;20053;-87
2022/05/22 07:42:46;;;;;;;21.27;4.28;;;14.50;99.90;;;;;;4920754;29;20118;-86
2022/05/22 07:45:16;;;;;;;11.73;3.70;;;14.50;99.90;;;;;;4933822;29;20567;-86
2022/05/22 07:47:42;;;;;;;19.35;4.57;;;14.60;99.90;;;;;;4919543;29;20028;-87
2022/05/22 07:52:53;;;;;;;15.70;3.45;;;14.70;99.90;;;;;;4934785;29;20047;-87
2022/05/22 07:55:20;;;;;;;11.88;3.08;;;14.70;99.90;;;;;;4933586;29;20031;-87
2022/05/22 07:57:48;;;;;;;16.42;3.55;;;14.80;99.90;;;;;;4935085;29;20468;-86
2022/05/22 08:00:19;;;;;;;9.23;3.05;;;14.80;99.90;;;;;;4932033;29;20495;-88
2022/05/22 08:02:45;;;;;;;12.25;3.00;;;14.80;99.90;;;;;;4932946;29;20035;-87
2022/05/22 08:05:13;;;;;;;15.43;3.53;;;14.80;99.90;;;;;;4934019;29;20080;-87
2022/05/22 08:07:39;;;;;;;16.70;3.58;;;14.90;99.90;;;;;;4935826;29;20063;-88
2022/05/22 08:10:06;;;;;;;11.95;3.45;;;15.00;99.90;;;;;;4933591;29;20071;-87
2022/05/22 08:12:37;;;;;;;14.70;3.53;;;15.00;99.90;;;;;;4934507;29;20066;-87
2022/05/22 08:15:03;;;;;;;10.68;2.78;;;15.10;99.90;;;;;;4928023;29;20028;-87
2022/05/22 08:17:32;;;;;;;19.27;3.63;;;15.20;99.90;;;;;;4948332;28;20023;-87
2022/05/22 08:19:58;;;;;;;17.42;3.45;;;15.20;99.90;;;;;;4952365;29;20023;-88
2022/05/22 08:22:23;;;;;;;15.07;3.42;;;15.20;99.90;;;;;;4954293;29;20043;-87
2022/05/22 08:24:49;;;;;;;13.70;3.38;;;15.30;99.90;;;;;;4952355;28;20590;-87
2022/05/22 08:27:14;;;;;;;11.02;3.83;;;15.30;99.90;;;;;;4947246;28;20031;-88
2022/05/22 08:29:40;;;;;;;18.88;3.60;;;15.40;99.90;;;;;;4953795;28;20035;-87
2022/05/22 08:32:06;;;;;;;13.02;2.85;;;15.50;99.90;;;;;;4955299;28;20031;-87
2022/05/22 08:34:31;;;;;;;12.25;3.13;;;15.50;99.90;;;;;;4947619;28;20043;-88
2022/05/22 08:36:57;;;;;;;16.25;4.10;;;15.60;99.90;;;;;;4954630;28;20027;-87
2022/05/22 08:39:23;;;;;;;13.65;3.65;;;15.60;99.90;;;;;;4937402;29;20023;-87
2022/05/22 08:41:50;;;;;;;14.68;3.30;;;15.70;99.90;;;;;;4950529;29;20471;-87
2022/05/22 08:44:29;;;;;;;22.95;3.88;;;15.60;99.90;;;;;;4949489;29;20035;-88
2022/05/22 08:47:14;;;;;;;12.18;3.13;;;15.60;99.90;;;;;;4954484;28;20031;-88
2022/05/22 08:49:54;;;;;;;15.20;2.88;;;15.50;99.90;;;;;;4931738;29;20031;-89
2022/05/22 08:52:36;;;;;;;11.95;3.85;;;15.60;99.90;;;;;;4926385;29;20027;-88
2022/05/22 08:55:20;;;;;;;9.38;3.10;;;15.70;99.90;;;;;;4941214;29;20035;-88
2022/05/22 09:00:39;;;;;;;14.20;3.47;;;15.80;99.90;;;;;;4942352;28;20035;-89
2022/05/22 09:03:20;;;;;;;21.85;3.83;;;15.90;99.90;;;;;;4945715;28;20027;-88
2022/05/22 09:05:50;;;;;;;13.60;3.35;;;16.00;99.90;;;;;;4954041;29;20387;-88
2022/05/22 09:08:19;;;;;;;14.27;4.00;;;16.10;99.90;;;;;;4936137;29;20471;-88
2022/05/22 09:11:31;;;;;;;13.57;3.45;;;16.10;99.90;;;;;;4970741;28;20033;-88
2022/05/22 09:14:08;;;;;;;16.50;3.15;;;16.30;99.90;;;;;;4900872;29;20194;-88
2022/05/22 09:16:48;;;;;;;10.07;3.30;;;16.40;99.90;;;;;;4941647;29;20090;-87
2022/05/22 09:19:21;;;;;;;8.98;3.15;;;16.50;99.90;;;;;;4953058;28;20021;-89
2022/05/22 09:22:00;;;;;;;10.50;3.50;;;16.60;99.90;;;;;;4953787;29;20024;-87
2022/05/22 09:28:29;;;;;;;13.40;3.17;;;16.40;99.90;;;;;;4937079;29;20030;-87
2022/05/22 09:31:07;;;;;;;10.98;3.42;;;16.30;99.90;;;;;;4935422;29;20047;-87
2022/05/22 09:33:52;;;;;;;21.15;4.10;;;16.30;99.90;;;;;;4945473;29;20039;-88
2022/05/22 09:36:29;;;;;;;14.52;3.22;;;16.30;99.90;;;;;;4943185;29;20039;-88
2022/05/22 09:39:02;;;;;;;20.90;4.45;;;16.30;99.90;;;;;;4954305;29;20482;-88
2022/05/22 09:41:44;;;;;;;17.85;3.85;;;16.30;99.90;;;;;;4954595;29;20058;-88
2022/05/22 09:44:43;;;;;;;9.38;3.20;;;16.30;99.90;;;;;;4952545;29;20027;-89
2022/05/22 09:47:23;;;;;;;11.68;3.33;;;16.40;99.90;;;;;;4949768;28;20034;-88
2022/05/22 09:53:45;;;;;;;8.20;2.53;;;16.50;99.90;;;;;;4891176;29;20092;-89
2022/05/22 09:56:36;;;;;;;8.68;3.42;;;16.40;99.90;;;;;;4924937;29;20035;-88
2022/05/22 09:59:29;;;;;;;15.20;3.03;;;16.40;99.90;;;;;;4948373;29;20546;-89
2022/05/22 10:01:58;;;;;;;17.58;3.35;;;16.40;99.90;;;;;;4951881;29;20035;-88
2022/05/22 10:04:40;;;;;;;18.05;4.20;;;16.50;99.90;;;;;;4938108;29;20036;-88
2022/05/22 10:07:36;;;;;;;15.10;3.38;;;16.60;99.90;;;;;;4953307;28;20051;-88
2022/05/22 10:10:04;;;;;;;8.77;2.67;;;16.80;99.90;;;;;;4939731;29;20111;-89
2022/05/22 10:13:01;;;;;;;11.43;2.92;;;17.00;99.90;;;;;;4952040;28;20031;-88
2022/05/22 10:15:29;;;;;;;;;;;17.20;99.90;;;;;;4956703;29;20109;-90
2022/05/22 10:18:14;;;;;;;10.65;3.28;;;17.10;99.90;;;;;;4956952;29;19918;-89
2022/05/22 10:20:56;;;;;;;16.92;3.00;;;17.10;99.90;;;;;;4957210;28;20344;-91
2022/05/22 10:23:43;;;;;;;6.93;3.22;;;17.10;99.90;;;;;;4943889;28;20119;-91
2022/05/22 10:26:18;;;;;;;10.88;3.10;;;17.20;99.90;;;;;;4936851;29;20111;-89
2022/05/22 10:29:02;;;;;;;9.32;2.60;;;17.10;99.90;;;;;;4956741;29;20067;-89
2022/05/22 10:31:54;;;;;;;7.38;2.50;;;17.10;99.90;;;;;;4952264;29;20027;-89
2022/05/22 10:34:36;;;;;;;12.45;2.55;;;17.00;99.90;;;;;;4938081;29;20059;-89
2022/05/22 10:37:23;;;;;;;18.58;3.38;;;17.00;99.90;;;;;;4952097;29;20110;-89
2022/05/22 10:39:49;;;;;;;13.50;3.35;;;16.90;99.90;;;;;;4940019;29;20114;-89
2022/05/22 10:42:45;;;;;;;14.75;2.92;;;16.90;99.90;;;;;;4925266;29;20059;-89
2022/05/22 10:45:32;;;;;;;9.10;3.08;;;16.90;99.90;;;;;;4949029;28;20171;-88
2022/05/22 10:48:23;;;;;;;10.52;2.55;;;17.00;99.90;;;;;;4957420;28;20110;-89
2022/05/22 10:51:09;;;;;;;14.70;4.15;;;17.00;99.90;;;;;;4955591;29;20035;-88
2022/05/22 10:54:07;;;;;;;10.93;2.65;;;17.00;99.90;;;;;;4948038;29;20045;-88
2022/05/22 10:56:35;;;;;;;11.82;3.15;;;17.00;99.90;;;;;;4940185;29;20023;-88
2022/05/22 10:59:06;;;;;;;11.88;2.95;;;17.10;99.90;;;;;;4943639;29;20031;-88
2022/05/22 11:01:42;;;;;;;13.93;3.08;;;17.10;99.90;;;;;;4956955;29;20027;-88
2022/05/22 11:04:16;;;;;;;11.27;2.90;;;17.20;99.90;;;;;;4948305;28;20506;-93
2022/05/22 11:06:57;;;;;;;13.07;3.15;;;17.20;99.90;;;;;;4954262;28;20078;-88
2022/05/22 11:09:28;;;;;;;12.00;2.53;;;17.30;99.90;;;;;;4958021;28;20046;-90
2022/05/22 11:12:19;;;;;;;11.32;2.83;;;17.30;99.90;;;;;;4930820;29;20127;-90
2022/05/22 11:14:45;;;;;;;14.82;3.30;;;17.30;99.90;;;;;;4953494;28;20498;-87
2022/05/22 11:17:21;;;;;;;10.73;3.25;;;17.40;99.90;;;;;;4956045;28;20041;-88
2022/05/22 11:19:49;;;;;;;14.65;4.13;;;17.50;99.90;;;;;;4939787;29;20034;-88
2022/05/22 11:22:42;;;;;;;9.50;2.78;;;17.60;99.90;;;;;;4954634;28;20032;-86
2022/05/22 11:25:31;;;;;;;20.17;3.75;;;17.60;99.90;;;;;;4954662;28;20098;-87
2022/05/22 11:28:25;;;;;;;10.25;2.67;;;17.50;99.90;;;;;;4939716;29;20034;-87
2022/05/22 11:31:16;;;;;;;11.13;3.63;;;17.40;99.90;;;;;;4938430;29;20039;-86
2022/05/22 11:34:17;;;;;;;7.47;2.40;;;17.30;99.90;;;;;;4956172;28;20086;-86
2022/05/22 11:37:04;;;;;;;10.30;2.45;;;17.30;99.90;;;;;;4949073;28;20454;-86
2022/05/22 11:40:07;;;;;;;11.25;2.85;;;17.30;99.90;;;;;;4958319;28;20490;-86
2022/05/22 11:42:39;;;;;;;6.82;2.45;;;17.30;99.90;;;;;;4954876;29;20027;-86
2022/05/22 11:45:20;;;;;;;9.25;2.67;;;17.30;99.90;;;;;;4955108;28;20031;-86
2022/05/22 11:48:24;;;;;;;12.30;3.03;;;17.30;99.90;;;;;;4955964;28;20054;-86
2022/05/22 11:51:27;;;;;;;12.48;2.65;;;17.30;99.90;;;;;;4950999;28;20034;-87
2022/05/22 11:54:07;;;;;;;13.13;2.92;;;17.40;99.90;;;;;;4948430;28;20067;-88
2022/05/22 11:56:55;;;;;;;7.30;2.95;;;17.50;99.90;;;;;;4944889;29;20050;-87
2022/05/22 11:59:44;;;;;;;10.52;2.40;;;17.50;99.90;;;;;;4925366;28;20500;-87
2022/05/22 12:02:18;;;;;;;15.25;2.70;;;17.50;99.90;;;;;;4941118;28;20364;-87
2022/05/22 12:04:55;;;;;;;12.13;3.00;;;17.60;99.90;;;;;;4974439;28;20375;-87
2022/05/22 12:07:30;;;;;;;11.40;2.33;;;17.70;99.90;;;;;;4962781;28;20022;-86
2022/05/22 12:10:11;;;;;;;12.23;3.40;;;17.70;99.90;;;;;;4940580;29;20027;-87
2022/05/22 12:12:58;;;;;;;17.50;3.00;;;17.80;99.90;;;;;;4935780;29;20070;-87
2022/05/22 12:15:28;;;;;;;15.90;2.80;;;18.00;99.90;;;;;;4952274;28;20307;-89
2022/05/22 12:18:22;;;;;;;10.63;2.22;;;18.00;99.90;;;;;;4954059;28;20112;-87
2022/05/22 12:20:55;;;;;;;10.07;2.45;;;18.00;99.90;;;;;;4936331;28;20092;-91
2022/05/22 12:23:42;;;;;;;9.32;2.70;;;17.90;99.90;;;;;;4935974;29;20360;-91
2022/05/22 12:26:08;;;;;;;16.75;2.85;;;17.80;99.90;;;;;;4932155;29;20391;-91
2022/05/22 12:28:56;;;;;;;10.48;2.70;;;17.70;99.90;;;;;;4937996;29;20023;-91
2022/05/22 12:31:28;;;;;;;12.13;2.85;;;17.70;99.90;;;;;;4938139;29;20065;-90
2022/05/22 12:33:58;;;;;;;12.50;3.05;;;17.70;99.90;;;;;;4955044;28;20046;-89
2022/05/22 12:36:28;;;;;;;13.10;2.75;;;17.60;99.90;;;;;;4960650;28;20034;-90
2022/05/22 12:39:09;;;;;;;12.68;3.05;;;17.60;99.90;;;;;;4952558;29;20023;-90
2022/05/22 12:42:09;;;;;;;8.90;2.85;;;17.50;99.90;;;;;;4955299;29;20030;-89
2022/05/22 12:44:35;;;;;;;10.13;2.63;;;17.50;99.90;;;;;;4938155;29;20407;-90
2022/05/22 12:47:14;;;;;;;7.65;1.90;;;17.50;99.90;;;;;;4959909;28;20023;-90
2022/05/22 12:49:40;;;;;;;7.63;2.42;;;17.60;99.90;;;;;;4955576;29;20365;-91
2022/05/22 12:52:23;;;;;;;10.18;2.85;;;17.70;99.90;;;;;;4954555;29;20033;-93
2022/05/22 12:55:09;;;;;;;10.20;2.72;;;17.80;99.90;;;;;;4939635;28;20028;-92
2022/05/22 12:57:36;;;;;;;10.73;2.72;;;17.90;99.90;;;;;;4934729;29;20035;-91
2022/05/22 13:00:42;;;;;;;9.50;2.83;;;18.00;99.90;;;;;;4936388;28;20030;-92
2022/05/22 13:03:16;;;;;;;14.95;3.88;;;18.20;99.90;;;;;;4914826;29;20031;-92
2022/05/22 13:05:56;;;;;;;10.68;3.42;;;18.20;99.90;;;;;;4951439;28;20082;-92
2022/05/22 13:08:29;;;;;;;6.80;2.80;;;18.30;99.90;;;;;;4955395;28;20030;-91
2022/05/22 13:10:59;;;;;;;12.60;3.05;;;18.30;99.90;;;;;;4935939;28;20038;-90
2022/05/22 13:13:30;;;;;;;14.07;3.55;;;18.40;99.90;;;;;;4947896;28;20114;-91
2022/05/22 13:16:09;;;;;;;21.30;5.35;;;18.50;99.90;;;;;;4948962;28;20067;-92
2022/05/22 13:18:49;;;;;;;7.68;2.92;;;18.60;99.90;;;;;;4937083;29;20636;-94
2022/05/22 13:21:35;;;;;;;11.77;2.63;;;18.60;99.90;;;;;;4951054;29;20027;-91
2022/05/22 13:24:16;;;;;;;11.80;2.80;;;18.50;99.90;;;;;;4944581;29;20035;-91
2022/05/22 13:27:20;;;;;;;8.23;2.78;;;18.40;99.90;;;;;;4936484;29;20411;-90
2022/05/22 13:29:56;;;;;;;8.70;2.90;;;18.30;99.90;;;;;;4950925;28;20034;-95
2022/05/22 13:32:39;;;;;;;12.00;3.15;;;18.30;99.90;;;;;;4937123;29;20527;-89
2022/05/22 13:35:16;;;;;;;11.73;3.67;;;18.30;99.90;;;;;;4951327;28;20032;-91
2022/05/22 13:37:48;;;;;;;9.52;2.45;;;18.30;99.90;;;;;;4952578;29;20028;-90
2022/05/22 13:40:19;;;;;;;5.13;2.28;;;18.30;99.90;;;;;;4935038;29;20027;-89
2022/05/22 13:43:26;;;;;;;8.50;3.08;;;18.30;99.90;;;;;;4954302;29;20492;-91
2022/05/22 13:46:21;;;;;;;12.65;3.78;;;18.40;99.90;;;;;;4935762;29;20024;-91
2022/05/22 13:48:57;;;;;;;11.63;3.60;;;18.40;99.90;;;;;;4959635;28;20118;-89